Time;durP1;ratioP1;P1;durP2;ratioP2;P2;SDS_P1;SDS_P2;PMS_P1;PMS_P2;Temp;Humidity;BMP_temperature;BMP_pressure;BME280_temperature;BME280_humidity;BME280_pressure;Samples;Min_cycle;Max_cycle;Signal;HPM_P1;HPM_P2
2024/01/10 00:01:42;;;;;;;5.60;2.00;;;;;;;-4.43;63.41;102931.34;5077612;28;20147;-83
2024/01/10 00:04:10;;;;;;;5.72;2.00;;;;;;;-4.46;63.78;102927.06;5060271;28;20028;-83
2024/01/10 00:06:35;;;;;;;4.07;1.50;;;;;;;-4.44;65.46;102929.66;5061023;28;20038;-83
2024/01/10 00:09:01;;;;;;;5.57;1.23;;;;;;;-4.45;66.23;102926.13;5060756;28;20040;-83
2024/01/10 00:11:26;;;;;;;7.73;2.37;;;;;;;-4.48;66.03;102930.69;5077691;28;20575;-83
2024/01/10 00:13:51;;;;;;;5.33;1.97;;;;;;;-4.52;65.87;102929.94;5077301;28;20459;-83
2024/01/10 00:16:17;;;;;;;3.50;1.60;;;;;;;-4.54;66.02;102926.53;5077897;28;20032;-83
2024/01/10 00:18:45;;;;;;;4.32;1.85;;;;;;;-4.58;66.54;102914.31;5095365;28;20032;-83
2024/01/10 00:21:11;;;;;;;3.40;1.27;;;;;;;-4.58;66.80;102919.63;5095054;28;20035;-83
2024/01/10 00:23:36;;;;;;;3.33;1.38;;;;;;;-4.56;67.05;102908.97;5077072;28;20052;-84
2024/01/10 00:26:02;;;;;;;4.43;1.93;;;;;;;-4.54;67.03;102915.91;5076838;28;20052;-83
2024/01/10 00:28:27;;;;;;;5.10;1.97;;;;;;;-4.53;66.38;102903.53;5043850;28;20035;-84
2024/01/10 00:30:53;;;;;;;4.10;1.73;;;;;;;-4.51;67.64;102913.13;5077821;28;20368;-83
2024/01/10 00:33:18;;;;;;;4.40;2.33;;;;;;;-4.51;66.22;102910.47;5095043;28;20035;-83
2024/01/10 00:35:46;;;;;;;4.20;1.50;;;;;;;-4.50;67.78;102912.22;5076718;28;20040;-83
2024/01/10 00:38:11;;;;;;;4.72;1.70;;;;;;;-4.49;68.96;102913.06;5094725;28;20519;-83
2024/01/10 00:40:37;;;;;;;7.13;1.80;;;;;;;-4.49;68.01;102908.63;5059831;28;20036;-83
2024/01/10 00:43:03;;;;;;;3.25;1.38;;;;;;;-4.48;68.78;102906.84;5076672;28;20032;-83
2024/01/10 00:45:29;;;;;;;3.05;1.25;;;;;;;-4.49;68.97;102907.78;5077456;28;20414;-84
2024/01/10 00:47:54;;;;;;;4.35;1.77;;;;;;;-4.46;68.46;102904.97;5094566;28;20032;-83
2024/01/10 00:50:22;;;;;;;3.47;1.50;;;;;;;-4.46;68.41;102905.88;5060778;28;20035;-83
2024/01/10 00:52:48;;;;;;;2.78;1.30;;;;;;;-4.48;67.69;102906.84;5060206;28;20028;-83
2024/01/10 00:55:16;;;;;;;8.30;2.57;;;;;;;-4.53;65.84;102904.41;5060775;28;20032;-84
2024/01/10 00:57:42;;;;;;;4.75;1.67;;;;;;;-4.56;66.10;102907.19;5094742;28;20028;-83
2024/01/10 01:00:09;;;;;;;3.37;1.50;;;;;;;-4.54;67.17;102896.53;5076415;28;20028;-83
2024/01/10 01:02:35;;;;;;;4.00;1.35;;;;;;;-4.53;67.49;102900.88;5060532;28;20028;-84
2024/01/10 01:05:01;;;;;;;5.47;1.23;;;;;;;-4.55;66.57;102905.38;5076597;28;20105;-84
2024/01/10 01:07:27;;;;;;;3.85;1.30;;;;;;;-4.57;67.60;102900.16;5076260;28;20028;-83
2024/01/10 01:09:52;;;;;;;3.57;1.57;;;;;;;-4.57;68.16;102900.16;5076289;28;20384;-83
2024/01/10 01:12:18;;;;;;;5.45;2.15;;;;;;;-4.57;66.69;102904.59;5059921;28;20024;-83
2024/01/10 01:14:46;;;;;;;3.57;1.50;;;;;;;-4.58;67.91;102893.13;5059295;28;20024;-83
2024/01/10 01:17:13;;;;;;;4.78;1.23;;;;;;;-4.56;69.02;102890.41;5075422;28;20040;-84
2024/01/10 01:19:40;;;;;;;4.07;1.83;;;;;;;-4.57;68.24;102894.00;5076085;28;20032;-83
2024/01/10 01:22:06;;;;;;;3.03;1.30;;;;;;;-4.60;67.80;102892.34;5076049;28;20315;-83
2024/01/10 01:24:32;;;;;;;2.67;1.10;;;;;;;-4.62;69.92;102895.06;5072395;28;20048;-83
2024/01/10 01:26:57;;;;;;;3.80;1.80;;;;;;;-4.66;68.86;102896.13;5073932;28;20098;-83
2024/01/10 01:29:22;;;;;;;2.60;1.03;;;;;;;-4.67;69.75;102901.47;5055943;28;20024;-84
2024/01/10 01:31:48;;;;;;;3.13;1.20;;;;;;;-4.68;70.32;102890.03;5072528;28;20028;-83
2024/01/10 01:34:13;;;;;;;6.00;2.43;;;;;;;-4.70;67.53;102889.22;5055837;28;20028;-83
2024/01/10 01:36:39;;;;;;;4.00;1.47;;;;;;;-4.73;69.28;102886.69;5055488;28;20039;-83
2024/01/10 01:39:05;;;;;;;5.10;1.77;;;;;;;-4.73;69.78;102886.69;5072390;28;20515;-83
2024/01/10 01:41:33;;;;;;;3.13;1.42;;;;;;;-4.74;69.77;102886.78;5072743;28;20025;-84
2024/01/10 01:43:59;;;;;;;3.70;1.30;;;;;;;-4.72;69.23;102892.84;5072485;28;20036;-83
2024/01/10 01:46:24;;;;;;;3.55;1.65;;;;;;;-4.71;68.63;102884.00;5073743;28;20062;-83
2024/01/10 01:48:52;;;;;;;3.10;1.23;;;;;;;-4.68;70.82;102884.72;5039103;28;20039;-83
2024/01/10 01:51:21;;;;;;;3.42;1.20;;;;;;;-4.69;70.20;102883.00;5073889;28;20032;-84
2024/01/10 01:53:48;;;;;;;3.40;1.25;;;;;;;-4.70;70.11;102891.88;5073619;28;20037;-84
2024/01/10 01:56:14;;;;;;;3.70;1.33;;;;;;;-4.69;70.13;102888.31;5072442;28;20033;-85
2024/01/10 01:58:42;;;;;;;3.17;1.50;;;;;;;-4.68;69.41;102881.19;5072126;28;20036;-85
2024/01/10 02:01:10;;;;;;;4.05;1.10;;;;;;;-4.67;70.47;102882.94;5072008;28;20042;-84
2024/01/10 02:03:35;;;;;;;2.63;1.02;;;;;;;-4.67;70.95;102877.63;5073512;28;20029;-84
2024/01/10 02:06:04;;;;;;;4.13;1.67;;;;;;;-4.68;70.21;102879.44;5072211;28;20032;-84
2024/01/10 02:08:31;;;;;;;3.65;1.17;;;;;;;-4.63;70.59;102882.72;5056065;28;20486;-83
2024/01/10 02:10:57;;;;;;;4.18;1.63;;;;;;;-4.63;69.89;102880.09;5073985;28;20032;-84
2024/01/10 02:13:24;;;;;;;5.03;1.83;;;;;;;-4.65;69.96;102875.78;5055960;28;20052;-84
2024/01/10 02:15:51;;;;;;;3.38;1.45;;;;;;;-4.64;71.66;102881.00;5072681;28;20270;-83
2024/01/10 02:18:17;;;;;;;4.88;1.52;;;;;;;-4.66;70.76;102877.56;5072986;28;20071;-84
2024/01/10 02:20:43;;;;;;;4.73;2.10;;;;;;;-4.68;68.52;102875.91;5071715;28;20606;-84
2024/01/10 02:23:12;;;;;;;4.10;1.75;;;;;;;-4.67;69.13;102875.00;5071998;28;20056;-84
2024/01/10 02:25:39;;;;;;;4.18;1.20;;;;;;;-4.68;69.54;102868.84;5071989;28;20043;-84
2024/01/10 02:28:04;;;;;;;5.40;2.50;;;;;;;-4.67;68.01;102869.69;5058027;28;20032;-83
2024/01/10 02:30:30;;;;;;;2.53;0.97;;;;;;;-4.68;70.63;102874.13;5075815;28;20054;-84
2024/01/10 02:32:55;;;;;;;4.63;1.42;;;;;;;-4.67;69.61;102867.03;5075616;28;20806;-83
2024/01/10 02:35:21;;;;;;;4.40;1.67;;;;;;;-4.70;68.64;102873.31;5059197;28;20047;-83
2024/01/10 02:37:46;;;;;;;3.40;1.27;;;;;;;-4.69;69.72;102871.56;5059818;28;20040;-84
2024/01/10 02:40:12;;;;;;;4.23;1.37;;;;;;;-4.69;70.58;102868.91;5042933;28;20411;-83
2024/01/10 02:42:37;;;;;;;5.22;2.22;;;;;;;-4.72;68.95;102866.34;5075489;28;20476;-84
2024/01/10 02:45:04;;;;;;;3.70;1.30;;;;;;;-4.74;69.90;102871.72;5059540;28;20029;-84
2024/01/10 02:47:29;;;;;;;4.75;1.45;;;;;;;-4.77;70.01;102863.91;5075549;28;20064;-84
2024/01/10 02:49:55;;;;;;;5.13;1.73;;;;;;;-4.76;69.40;102861.19;5076842;28;20522;-83
2024/01/10 02:52:23;;;;;;;3.90;1.50;;;;;;;-4.73;70.42;102846.13;5059258;28;20549;-83
2024/01/10 02:54:49;;;;;;;6.28;2.35;;;;;;;-4.71;68.92;102849.56;5058830;28;20036;-84
2024/01/10 02:57:14;;;;;;;3.33;1.27;;;;;;;-4.71;69.43;102854.84;5042765;28;20028;-83
2024/01/10 02:59:39;;;;;;;2.25;1.20;;;;;;;-4.70;70.23;102848.63;5059451;28;20399;-84
2024/01/10 03:02:05;;;;;;;3.73;1.77;;;;;;;-4.71;69.56;102852.19;5058498;28;20119;-83
2024/01/10 03:04:30;;;;;;;8.90;2.10;;;;;;;-4.73;69.83;102846.97;5042070;28;20032;-84
2024/01/10 03:06:56;;;;;;;3.50;1.40;;;;;;;-4.75;70.42;102851.50;5076930;28;20056;-84
2024/01/10 03:09:23;;;;;;;3.00;1.30;;;;;;;-4.74;71.12;102845.25;5042302;28;20045;-83
2024/01/10 03:11:48;;;;;;;5.00;1.50;;;;;;;-4.73;70.20;102846.13;5059487;28;20029;-84
2024/01/10 03:14:17;;;;;;;3.77;1.57;;;;;;;-4.77;71.39;102843.59;5075081;28;20102;-84
2024/01/10 03:16:45;;;;;;;3.55;1.45;;;;;;;-4.74;71.62;102837.28;5075410;28;20025;-84
2024/01/10 03:19:11;;;;;;;3.33;1.30;;;;;;;-4.73;71.63;102836.38;5076319;28;20078;-84
2024/01/10 03:21:37;;;;;;;3.58;1.50;;;;;;;-4.73;71.57;102830.22;5074757;28;20036;-84
2024/01/10 03:24:03;;;;;;;4.63;1.73;;;;;;;-4.78;70.85;102839.22;5075109;28;20169;-84
2024/01/10 03:26:30;;;;;;;5.05;2.03;;;;;;;-4.77;71.03;102840.06;5075542;28;20021;-84
2024/01/10 03:28:57;;;;;;;3.87;1.33;;;;;;;-4.77;72.99;102826.84;5058516;28;20028;-84
2024/01/10 03:31:26;;;;;;;4.93;1.75;;;;;;;-4.77;70.90;102826.84;5074882;28;20029;-84
2024/01/10 03:33:51;;;;;;;3.67;1.42;;;;;;;-4.79;72.83;102824.25;5075162;28;20037;-84
2024/01/10 03:36:17;;;;;;;4.93;1.43;;;;;;;-4.83;72.90;102833.25;5058290;28;20533;-84
2024/01/10 03:38:46;;;;;;;4.57;1.92;;;;;;;-4.83;72.54;102827.09;5073900;28;20484;-83
2024/01/10 03:41:16;;;;;;;7.20;2.40;;;;;;;-4.84;72.17;102820.97;5074444;28;20036;-84
2024/01/10 03:43:42;;;;;;;6.13;2.17;;;;;;;-4.86;71.93;102821.94;5074490;28;20074;-83
2024/01/10 03:46:11;;;;;;;4.03;1.38;;;;;;;-4.83;71.85;102821.81;5074626;28;20287;-84
2024/01/10 03:48:38;;;;;;;6.60;2.30;;;;;;;-4.88;71.28;102810.56;5058351;28;20055;-84
2024/01/10 03:51:07;;;;;;;4.13;1.88;;;;;;;-4.86;71.21;102812.19;5074194;28;20036;-83
2024/01/10 03:53:32;;;;;;;4.93;2.17;;;;;;;-4.83;71.74;102813.88;5057771;28;20132;-84
2024/01/10 03:55:58;;;;;;;5.68;2.10;;;;;;;-4.82;72.57;102805.84;5057781;28;20310;-83
2024/01/10 03:58:23;;;;;;;4.70;1.90;;;;;;;-4.82;72.76;102805.00;5074398;28;20461;-84
2024/01/10 04:00:49;;;;;;;5.72;1.50;;;;;;;-4.82;72.54;102805.84;5075173;28;20154;-84
2024/01/10 04:03:14;;;;;;;3.75;1.52;;;;;;;-4.80;72.44;102803.13;5041100;28;20037;-83
2024/01/10 04:05:43;;;;;;;5.37;1.77;;;;;;;-4.80;73.35;102803.13;5057999;28;20031;-84
2024/01/10 04:08:08;;;;;;;3.88;1.70;;;;;;;-4.82;72.03;102803.19;5075232;28;20025;-83
2024/01/10 04:10:34;;;;;;;3.53;1.43;;;;;;;-4.83;71.86;102800.63;5057406;28;20040;-84
2024/01/10 04:12:59;;;;;;;4.07;1.20;;;;;;;-4.83;73.14;102800.63;5058208;28;20036;-84
2024/01/10 04:15:24;;;;;;;2.72;1.20;;;;;;;-4.85;74.04;102798.03;5040784;28;20037;-83
2024/01/10 04:17:50;;;;;;;4.30;1.33;;;;;;;-4.85;73.91;102794.53;5074827;28;20067;-83
2024/01/10 04:20:16;;;;;;;4.00;1.23;;;;;;;-4.84;74.28;102797.13;5073945;28;20031;-84
2024/01/10 04:22:41;;;;;;;4.43;1.52;;;;;;;-4.85;74.08;102794.53;5056992;28;20493;-84
2024/01/10 04:25:07;;;;;;;4.87;1.70;;;;;;;-4.84;73.57;102799.78;5073798;28;20534;-84
2024/01/10 04:27:33;;;;;;;5.30;1.65;;;;;;;-4.86;74.84;102791.00;5073440;28;20020;-84
2024/01/10 04:29:58;;;;;;;4.60;1.77;;;;;;;-4.85;74.52;102800.69;5073755;28;20033;-83
2024/01/10 04:32:24;;;;;;;3.37;1.37;;;;;;;-4.87;75.39;102797.25;5073546;28;20057;-83
2024/01/10 04:34:49;;;;;;;4.10;1.43;;;;;;;-4.87;75.17;102801.69;5074591;28;20040;-83
2024/01/10 04:37:15;;;;;;;5.10;1.70;;;;;;;-4.90;75.35;102792.09;5074565;28;20465;-83
2024/01/10 04:39:42;;;;;;;4.53;1.67;;;;;;;-4.93;74.97;102787.78;5074388;28;20036;-83
2024/01/10 04:42:08;;;;;;;6.70;1.90;;;;;;;-4.89;75.86;102782.34;5073734;28;20496;-84
2024/01/10 04:44:34;;;;;;;4.18;1.52;;;;;;;-4.91;75.85;102790.38;5073771;28;20480;-84
2024/01/10 04:46:59;;;;;;;6.03;2.03;;;;;;;-4.90;74.92;102791.22;5073630;28;20036;-84
2024/01/10 04:49:25;;;;;;;4.90;1.97;;;;;;;-4.87;75.03;102785.78;5074676;28;20024;-84
2024/01/10 04:51:51;;;;;;;3.72;1.63;;;;;;;-4.87;75.45;102791.09;5056595;28;20051;-84
2024/01/10 04:54:16;;;;;;;4.95;1.77;;;;;;;-4.87;75.07;102791.97;5073274;28;20384;-84
2024/01/10 04:56:45;;;;;;;4.10;1.25;;;;;;;-4.91;75.55;102784.22;5074649;28;20029;-84
2024/01/10 04:59:10;;;;;;;4.70;2.10;;;;;;;-4.93;75.04;102779.00;5072856;28;20032;-84
2024/01/10 05:01:37;;;;;;;4.93;1.65;;;;;;;-4.90;75.46;102785.94;5074149;28;20032;-84
2024/01/10 05:04:02;;;;;;;4.47;1.30;;;;;;;-4.91;76.59;102787.72;5074074;28;20115;-84
2024/01/10 05:06:28;;;;;;;4.65;1.58;;;;;;;-4.90;77.09;102784.16;5073052;28;20692;-84
2024/01/10 05:08:57;;;;;;;3.77;1.80;;;;;;;-4.89;76.65;102779.72;5074191;28;20419;-85
2024/01/10 05:11:24;;;;;;;4.07;1.20;;;;;;;-4.94;77.21;102786.06;5072940;28;20091;-84
2024/01/10 05:13:49;;;;;;;5.03;1.92;;;;;;;-4.94;76.06;102775.47;5056181;28;20028;-84
2024/01/10 05:16:15;;;;;;;3.23;1.10;;;;;;;-4.91;76.52;102784.22;5073009;28;20452;-84
2024/01/10 05:18:40;;;;;;;4.28;1.45;;;;;;;-4.89;75.33;102785.84;5056577;28;20516;-84
2024/01/10 05:21:06;;;;;;;5.50;2.15;;;;;;;-4.92;75.22;102775.41;5072364;28;20389;-84
2024/01/10 05:23:32;;;;;;;5.87;1.97;;;;;;;-4.96;74.45;102779.09;5072145;28;20401;-84
2024/01/10 05:25:57;;;;;;;4.22;1.80;;;;;;;-4.98;75.67;102783.63;5072751;28;20032;-83
2024/01/10 05:28:23;;;;;;;3.90;1.27;;;;;;;-4.98;76.32;102784.47;5074179;28;20406;-84
2024/01/10 05:30:48;;;;;;;6.55;2.28;;;;;;;-5.01;74.66;102784.59;5055935;28;20035;-84
2024/01/10 05:33:14;;;;;;;3.20;1.53;;;;;;;-5.01;75.88;102783.75;5072435;28;20036;-83
2024/01/10 05:35:39;;;;;;;3.83;1.40;;;;;;;-5.02;77.94;102780.25;5056253;28;20035;-84
2024/01/10 05:38:05;;;;;;;2.97;1.07;;;;;;;-5.02;77.52;102771.44;5039467;28;20511;-83
2024/01/10 05:40:31;;;;;;;3.70;1.02;;;;;;;-5.03;78.01;102786.47;5072404;28;20064;-83
2024/01/10 05:42:57;;;;;;;4.67;1.73;;;;;;;-5.08;77.54;102790.22;5072644;28;20452;-83
2024/01/10 05:45:23;;;;;;;3.72;1.20;;;;;;;-5.06;78.63;102777.78;5056366;28;20310;-83
2024/01/10 05:47:48;;;;;;;3.20;1.43;;;;;;;-5.05;78.22;102784.81;5072096;28;20162;-83
2024/01/10 05:50:14;;;;;;;2.97;1.50;;;;;;;-5.03;77.20;102775.88;5072480;28;20267;-84
2024/01/10 05:52:40;;;;;;;3.97;1.20;;;;;;;-5.01;79.70;102791.69;5072167;28;20046;-83
2024/01/10 05:55:08;;;;;;;3.15;1.20;;;;;;;-5.05;79.41;102792.75;5072608;28;20024;-84
2024/01/10 05:57:34;;;;;;;3.20;1.30;;;;;;;-5.07;79.58;102786.66;5072520;28;20376;-84
2024/01/10 05:59:59;;;;;;;4.00;1.60;;;;;;;-5.07;79.38;102784.03;5055291;28;20032;-83
2024/01/10 06:02:25;;;;;;;5.35;1.80;;;;;;;-5.07;77.13;102776.94;5072005;28;20028;-83
2024/01/10 06:04:51;;;;;;;4.17;1.73;;;;;;;-5.13;78.27;102772.75;5072103;28;20032;-84
2024/01/10 06:07:17;;;;;;;8.07;2.30;;;;;;;-5.16;76.95;102783.47;5072280;28;20054;-84
2024/01/10 06:09:43;;;;;;;5.00;1.77;;;;;;;-5.18;78.19;102776.53;5071840;28;20426;-83
2024/01/10 06:12:09;;;;;;;3.65;1.45;;;;;;;-5.14;78.32;102789.59;5055311;28;20033;-83
2024/01/10 06:14:34;;;;;;;5.67;2.03;;;;;;;-5.18;78.13;102780.03;5071747;28;20037;-83
2024/01/10 06:17:01;;;;;;;3.07;1.50;;;;;;;-5.20;78.53;102779.22;5055926;28;20098;-84
2024/01/10 06:19:26;;;;;;;6.43;1.75;;;;;;;-5.22;79.32;102775.81;5055610;28;20283;-84
2024/01/10 06:21:54;;;;;;;6.07;1.33;;;;;;;-5.23;79.03;102781.16;5055162;28;20094;-85
2024/01/10 06:24:22;;;;;;;4.30;1.53;;;;;;;-5.21;79.97;102768.72;5072195;28;20052;-84
2024/01/10 06:26:49;;;;;;;6.57;2.00;;;;;;;-5.21;79.78;102776.66;5054954;28;20052;-85
2024/01/10 06:29:15;;;;;;;6.10;2.90;;;;;;;-5.26;78.17;102776.84;5071912;28;20070;-85
2024/01/10 06:31:40;;;;;;;4.45;1.38;;;;;;;-5.25;79.62;102773.28;5055113;28;20024;-86
2024/01/10 06:34:06;;;;;;;3.33;1.40;;;;;;;-5.27;80.30;102780.44;5055616;28;20051;-84
2024/01/10 06:36:31;;;;;;;3.37;1.57;;;;;;;-5.29;80.02;102775.19;5072633;28;20036;-84
2024/01/10 06:38:57;;;;;;;5.30;2.13;;;;;;;-5.29;79.02;102785.78;5071760;28;20035;-84
2024/01/10 06:41:25;;;;;;;3.80;1.67;;;;;;;-5.26;78.47;102782.16;5071332;28;20024;-84
2024/01/10 06:43:53;;;;;;;3.33;1.20;;;;;;;-5.29;79.16;102784.94;5071884;28;20306;-84
2024/01/10 06:46:24;;;;;;;4.13;1.80;;;;;;;-5.32;80.42;102785.91;5055194;28;20040;-85
2024/01/10 06:48:50;;;;;;;3.85;1.60;;;;;;;-5.30;80.88;102788.47;5071959;28;20028;-84
2024/01/10 06:51:16;;;;;;;4.40;1.50;;;;;;;-5.32;81.22;102780.63;5072691;28;20031;-84
2024/01/10 06:53:44;;;;;;;3.67;1.75;;;;;;;-5.32;80.74;102775.31;5073014;28;20029;-85
2024/01/10 06:56:10;;;;;;;5.10;1.95;;;;;;;-5.33;81.70;102781.56;5055447;28;20047;-84
2024/01/10 06:58:37;;;;;;;4.10;1.60;;;;;;;-5.34;81.61;102781.63;5071900;28;20032;-85
2024/01/10 07:01:06;;;;;;;2.88;1.33;;;;;;;-5.35;81.41;102786.03;5072680;28;20078;-85
2024/01/10 07:03:45;;;;;;;3.55;1.38;;;;;;;-5.37;82.58;102779.13;5055465;28;20032;-84
2024/01/10 07:06:14;;;;;;;5.13;1.00;;;;;;;-5.40;81.99;102784.50;5072155;28;20052;-84
2024/01/10 07:08:40;;;;;;;3.90;1.48;;;;;;;-5.38;81.69;102787.97;5071665;28;20279;-85
2024/01/10 07:11:06;;;;;;;3.60;1.25;;;;;;;-5.38;81.75;102783.53;5071147;28;20029;-84
2024/01/10 07:13:34;;;;;;;4.43;1.53;;;;;;;-5.39;81.82;102794.16;5073171;28;20078;-84
2024/01/10 07:16:03;;;;;;;5.72;1.70;;;;;;;-5.38;81.12;102795.91;5074300;28;20060;-84
2024/01/10 07:18:30;;;;;;;5.72;1.90;;;;;;;-5.36;81.88;102788.75;5074368;28;20036;-84
2024/01/10 07:20:55;;;;;;;5.60;1.63;;;;;;;-5.36;81.55;102786.09;5074481;28;20028;-85
2024/01/10 07:23:22;;;;;;;5.53;1.77;;;;;;;-5.35;82.11;102785.19;5075489;28;20032;-84
2024/01/10 07:25:49;;;;;;;5.53;2.00;;;;;;;-5.33;82.43;102781.56;5038811;28;20140;-84
2024/01/10 07:28:15;;;;;;;4.33;1.80;;;;;;;-5.31;82.56;102776.19;5055460;28;20437;-84
2024/01/10 07:30:40;;;;;;;3.20;1.45;;;;;;;-5.27;82.32;102769.88;5037934;28;20127;-84
2024/01/10 07:33:09;;;;;;;5.33;2.17;;;;;;;-5.24;81.97;102766.19;5055725;28;20040;-83
2024/01/10 07:35:34;;;;;;;5.55;2.53;;;;;;;-5.24;80.41;102764.44;5054832;28;20063;-84
2024/01/10 07:38:00;;;;;;;6.87;2.60;;;;;;;-5.26;80.11;102779.50;5054487;28;20025;-84
2024/01/10 07:40:25;;;;;;;4.15;1.63;;;;;;;-5.23;81.39;102774.06;5037889;28;20461;-84
2024/01/10 07:42:51;;;;;;;3.70;1.43;;;;;;;-5.25;81.42;102768.00;5037911;28;20487;-84
2024/01/10 07:45:16;;;;;;;6.43;2.57;;;;;;;-5.26;79.65;102776.00;5054714;28;20128;-84
2024/01/10 07:47:42;;;;;;;4.57;1.87;;;;;;;-5.25;81.38;102775.09;5053937;28;20440;-84
2024/01/10 07:50:14;;;;;;;5.30;1.63;;;;;;;-5.24;82.29;102766.19;5055404;28;20029;-84
2024/01/10 07:52:40;;;;;;;4.90;1.90;;;;;;;-5.24;81.58;102763.56;5054314;28;20290;-84
2024/01/10 07:55:08;;;;;;;3.17;1.20;;;;;;;-5.20;82.15;102768.66;5054103;28;20025;-84
2024/01/10 07:57:34;;;;;;;3.45;1.42;;;;;;;-5.18;82.63;102773.88;5054070;28;20032;-83
2024/01/10 07:59:59;;;;;;;4.93;1.90;;;;;;;-5.18;81.48;102773.88;5053955;28;20093;-83
2024/01/10 08:02:25;;;;;;;5.93;2.22;;;;;;;-5.17;81.83;102770.31;5054914;28;20039;-84
2024/01/10 08:04:51;;;;;;;3.77;1.70;;;;;;;-5.13;82.18;102771.91;5053809;28;20033;-83
2024/01/10 08:07:17;;;;;;;2.90;1.50;;;;;;;-5.14;82.14;102781.66;5054021;28;20032;-84
2024/01/10 08:09:42;;;;;;;3.60;1.50;;;;;;;-5.11;82.51;102786.81;5053762;28;20082;-83
2024/01/10 08:12:07;;;;;;;4.70;2.00;;;;;;;-5.09;82.16;102784.09;5037035;28;20040;-83
2024/01/10 08:14:33;;;;;;;3.83;1.70;;;;;;;-5.05;81.61;102771.56;5037543;28;20495;-83
2024/01/10 08:17:00;;;;;;;5.03;2.03;;;;;;;-5.05;81.08;102783.00;5037497;28;20036;-85
2024/01/10 08:19:26;;;;;;;6.35;2.25;;;;;;;-5.03;81.61;102785.63;5037862;28;20059;-84
2024/01/10 08:21:54;;;;;;;5.47;2.37;;;;;;;-5.02;81.39;102790.84;5054002;28;20044;-84
2024/01/10 08:24:23;;;;;;;9.35;2.47;;;;;;;-5.00;80.33;102790.78;5042617;28;20090;-84
2024/01/10 08:26:51;;;;;;;3.83;1.40;;;;;;;-4.97;81.80;102791.50;5074692;28;20033;-84
2024/01/10 08:29:21;;;;;;;5.43;2.28;;;;;;;-4.95;81.77;102788.78;5074511;28;20020;-84
2024/01/10 08:31:47;;;;;;;5.22;1.60;;;;;;;-4.95;81.76;102794.06;5073726;28;20028;-84
2024/01/10 08:34:15;;;;;;;4.20;1.60;;;;;;;-4.91;82.05;102800.13;5040386;28;20127;-84
2024/01/10 08:36:41;;;;;;;6.53;2.08;;;;;;;-4.89;81.58;102803.53;5074872;28;20171;-84
2024/01/10 08:39:06;;;;;;;5.53;2.17;;;;;;;-4.85;81.14;102799.84;5057183;28;20127;-84
2024/01/10 08:41:36;;;;;;;6.93;1.90;;;;;;;-4.82;80.99;102799.72;5074439;28;20493;-84
2024/01/10 08:44:02;;;;;;;6.33;2.43;;;;;;;-4.79;81.53;102791.63;5074049;28;20024;-84
2024/01/10 08:46:31;;;;;;;5.13;2.08;;;;;;;-4.78;81.13;102791.56;5074531;28;20288;-84
2024/01/10 08:48:56;;;;;;;5.10;2.05;;;;;;;-4.73;82.03;102787.84;5040498;28;20037;-85
2024/01/10 08:51:22;;;;;;;7.50;2.53;;;;;;;-4.72;81.23;102795.72;5056613;28;20097;-84
2024/01/10 08:53:47;;;;;;;7.97;2.93;;;;;;;-4.72;80.69;102798.38;5056531;28;20075;-84
2024/01/10 08:56:14;;;;;;;7.53;2.63;;;;;;;-4.72;80.89;102800.16;5074251;28;20044;-84
2024/01/10 08:58:42;;;;;;;7.90;3.38;;;;;;;-4.69;80.37;102797.38;5073377;28;20291;-84
2024/01/10 09:01:10;;;;;;;6.22;3.17;;;;;;;-4.64;79.43;102798.03;5072618;28;20067;-84
2024/01/10 09:03:37;;;;;;;5.57;2.35;;;;;;;-4.58;80.46;102797.75;5072593;28;20024;-84
2024/01/10 09:06:03;;;;;;;5.38;2.08;;;;;;;-4.53;81.29;102800.19;5073624;28;20123;-85
2024/01/10 09:08:29;;;;;;;8.53;3.13;;;;;;;-4.50;80.29;102792.09;5074194;28;20028;-84
2024/01/10 09:10:55;;;;;;;5.22;2.30;;;;;;;-4.45;79.58;102792.75;5072470;28;20282;-83
2024/01/10 09:13:20;;;;;;;6.23;2.50;;;;;;;-4.43;79.87;102788.25;5055913;28;20032;-84
2024/01/10 09:15:46;;;;;;;5.45;2.20;;;;;;;-4.38;79.38;102791.56;5073758;28;20031;-84
2024/01/10 09:18:11;;;;;;;8.57;2.70;;;;;;;-4.36;78.88;102794.13;5074707;28;20024;-84
2024/01/10 09:20:37;;;;;;;6.70;2.67;;;;;;;-4.34;78.34;102794.91;5056318;28;20044;-83
2024/01/10 09:23:03;;;;;;;4.82;2.13;;;;;;;-4.31;79.39;102795.66;5039525;28;20346;-84
2024/01/10 09:25:29;;;;;;;7.22;2.60;;;;;;;-4.28;78.50;102805.22;5072868;28;20124;-85
2024/01/10 09:27:55;;;;;;;10.25;4.05;;;;;;;-4.27;76.49;102805.16;5072689;28;20476;-84
2024/01/10 09:30:20;;;;;;;8.27;2.47;;;;;;;-4.24;77.23;102807.69;5072572;28;20032;-84
2024/01/10 09:32:46;;;;;;;7.47;2.92;;;;;;;-4.20;77.33;102800.44;5072496;28;20066;-84
2024/01/10 09:35:12;;;;;;;8.47;3.00;;;;;;;-4.14;77.72;102807.25;5072502;28;20074;-84
2024/01/10 09:37:38;;;;;;;6.07;2.75;;;;;;;-4.09;77.35;102811.44;5071610;28;20070;-84
2024/01/10 09:40:06;;;;;;;6.28;2.45;;;;;;;-4.02;77.13;102806.69;5072291;28;20040;-85
2024/01/10 09:42:33;;;;;;;8.47;3.17;;;;;;;-3.99;76.25;102811.00;5073693;28;20063;-84
2024/01/10 09:44:59;;;;;;;5.78;2.97;;;;;;;-3.93;75.91;102806.25;5073948;28;20315;-84
2024/01/10 09:47:27;;;;;;;7.05;2.70;;;;;;;-3.86;76.56;102809.47;5055442;28;20032;-84
2024/01/10 09:49:53;;;;;;;5.38;2.38;;;;;;;-3.82;77.22;102818.13;5072314;28;20028;-84
2024/01/10 09:52:35;;;;;;;6.60;2.40;;;;;;;-3.78;78.01;102814.41;5039071;28;20056;-84
2024/01/10 09:55:01;;;;;;;7.18;2.55;;;;;;;-3.75;77.19;102817.78;5072989;28;20029;-85
2024/01/10 09:57:27;;;;;;;8.13;3.15;;;;;;;-3.71;75.97;102822.00;5072539;28;20030;-84
2024/01/10 09:59:54;;;;;;;6.68;2.95;;;;;;;-3.64;74.65;102821.72;5072076;28;20491;-84
2024/01/10 10:02:22;;;;;;;8.00;3.20;;;;;;;-3.59;74.56;102819.69;5072157;28;20045;-84
2024/01/10 10:05:08;;;;;;;5.40;2.63;;;;;;;-3.52;75.16;102823.78;5073212;28;20028;-84
2024/01/10 10:07:50;;;;;;;10.00;3.35;;;;;;;-3.47;75.01;102816.47;5071930;28;20055;-84
2024/01/10 10:10:17;;;;;;;8.75;2.90;;;;;;;-3.43;73.76;102818.00;5072041;28;20017;-84
2024/01/10 10:12:54;;;;;;;7.45;2.88;;;;;;;-3.37;73.18;102820.34;5071887;28;20039;-85
2024/01/10 10:15:21;;;;;;;6.73;2.87;;;;;;;-3.34;73.79;102811.38;5072148;28;20028;-84
2024/01/10 10:17:48;;;;;;;9.95;3.40;;;;;;;-3.27;73.70;102814.59;5072421;28;20498;-84
2024/01/10 10:20:30;;;;;;;8.45;3.45;;;;;;;-3.23;74.08;102811.72;5071989;28;20020;-84
2024/01/10 10:23:06;;;;;;;8.90;3.05;;;;;;;-3.18;73.95;102809.66;5072027;28;20084;-84
2024/01/10 10:25:37;;;;;;;8.02;2.58;;;;;;;-3.12;74.19;102811.16;5088932;28;20048;-84
2024/01/10 10:28:07;;;;;;;8.60;4.17;;;;;;;-3.10;72.23;102808.44;5058777;28;20028;-84
2024/01/10 10:30:33;;;;;;;7.60;3.28;;;;;;;-3.08;73.58;102806.56;5075080;28;20368;-84
2024/01/10 10:32:58;;;;;;;7.57;3.67;;;;;;;-3.02;72.63;102804.44;5075315;28;20122;-84
2024/01/10 10:35:24;;;;;;;7.57;3.00;;;;;;;-2.96;74.32;102805.09;5093010;28;20476;-84
2024/01/10 10:37:50;;;;;;;8.18;3.63;;;;;;;-2.95;73.04;102797.03;5057880;28;20028;-84
2024/01/10 10:40:18;;;;;;;7.78;3.70;;;;;;;-2.91;72.71;102785.31;5058489;28;20036;-85
2024/01/10 10:42:48;;;;;;;12.23;4.77;;;;;;;-2.84;70.70;102793.81;5093237;28;20468;-86
2024/01/10 10:45:18;;;;;;;7.20;2.97;;;;;;;-2.82;72.81;102781.28;5074799;28;20032;-84
2024/01/10 10:47:49;;;;;;;7.80;3.40;;;;;;;-2.78;71.52;102782.00;5075078;28;20032;-83
2024/01/10 10:50:25;;;;;;;5.57;2.47;;;;;;;-2.71;72.58;102780.75;5046371;28;20043;-83
2024/01/10 10:52:52;;;;;;;7.53;3.00;;;;;;;-2.65;71.87;102781.28;5079100;28;20111;-83
2024/01/10 10:55:20;;;;;;;6.27;2.27;;;;;;;-2.60;71.94;102783.69;5078827;28;20117;-84
2024/01/10 10:57:48;;;;;;;8.05;3.95;;;;;;;-2.55;70.40;102780.81;5097197;28;20059;-83
2024/01/10 11:00:15;;;;;;;8.43;3.45;;;;;;;-2.52;70.66;102788.59;5078628;28;20062;-84
2024/01/10 11:02:41;;;;;;;11.23;4.97;;;;;;;-2.50;68.21;102784.06;5061870;28;20039;-83
2024/01/10 11:05:11;;;;;;;8.73;3.28;;;;;;;-2.44;70.59;102789.03;5078713;28;20115;-85
2024/01/10 11:07:38;;;;;;;11.63;3.83;;;;;;;-2.38;70.98;102786.03;5078885;28;20024;-83
2024/01/10 11:10:09;;;;;;;6.32;2.83;;;;;;;-2.31;70.87;102781.25;5078072;28;20036;-84
2024/01/10 11:12:43;;;;;;;8.20;3.85;;;;;;;-2.24;70.01;102787.97;5078727;28;20051;-84
2024/01/10 11:15:27;;;;;;;7.40;2.72;;;;;;;-2.17;70.50;102776.06;5078477;28;20036;-84
2024/01/10 11:18:22;;;;;;;9.45;4.00;;;;;;;-2.12;68.13;102781.97;5078050;28;20123;-84
2024/01/10 11:20:59;;;;;;;6.57;3.00;;;;;;;-2.02;70.84;102774.34;5078562;28;20357;-85
2024/01/10 11:23:50;;;;;;;5.30;2.78;;;;;;;-1.97;70.58;102780.25;5096455;28;20035;-84